METAR AND TAF INFORMATION
METAR FOR EIDL
ADDS - METARS form results

(1934 UTC 03 August 2021)
Data provider http://aviationweather.gov/metar/data/
 
Forecast for: EIDL (DONEGAL ARPT , IE)
Text: TAF EIDL 031700Z 0318/0403 26009KT 9999 SCT035
Forecast period: 1800 UTC 03 August 2021 to 0300 UTC 04 August 2021
Forecast type: FROM: standard forecast or significant change
Winds: from the W (260 degrees) at 10 MPH (9 knots; 4.6 m/s)
Visibility: 6 or more miles (10+ km)
Ceiling: at least 12,000 feet AGL
Clouds: scattered clouds at 3500 feet AGL
Weather: no significant weather forecast for this period
Text: PROB30
Forecast period: 1900 UTC 03 August 2021 to 0000 UTC 04 August 2021
Forecast type: TEMPORARY: The following changes expected for less than half the time period
Visibility: 2.49 miles (4.01 km)
Ceiling: 1400 feet AGL
Clouds: broken clouds at 1400 feet AGL
Weather: -SHRA  (light rain showers)

 AIRPORT MAP

 RUNWAY INFORMATION
Runway 03 Runway length 4908 ft Runway width 98 ft
Runway elevation 10 ft Runway displaced threshold 656 ft Runway heading 20
Runway 21 Runway length 4908 ft Runway width 98 ft
Runway elevation 30 ft Runway displaced threshold 656 ft Runway heading 200

 AIRPORT FREQUENCIES
Type ATIS Name ATIS Frequency 129.925 MHZ
Type GND Name GND Frequency 129.8 MHZ
Type TWR Name TWR Frequency 129.8 MHZ

 AIRPORT NEAR NAVIGATION AIDS
Type NDB Name Donegal Frequency 361 KHZ





Powered by Virtual Airlines Manager

Maps by Rafael Santos